| time (UTC) | temp C | wind direction | speed KPH | gust KPH | rain 1hr cm | rain 24hr cm | rain mn cm | humidity % | barometer mb |
| 20260507120503 | 17 | 16 | 4.8 | 6.4 | 0.00 | 0.00 | 0.00 | 63 | 1016.4 |
| 20260507120008 | 17 | 350 | 4.8 | 6.4 | 0.00 | 0.00 | 0.00 | 64 | 1016.3 |
| 20260507120006 | 17 | 350 | 4.8 | 6.4 | 0.00 | 0.00 | 0.00 | 64 | 1016.3 |
| 20260507115505 | 17 | 57 | 3.2 | 9.7 | 0.00 | 0.00 | 0.00 | 63 | 1016.4 |
| 20260507115005 | 16 | 212 | 1.6 | 1.6 | 0.00 | 0.00 | 0.00 | 60 | 1016.4 |
| 20260507114505 | 16 | 121 | 1.6 | 4.8 | 0.00 | 0.00 | 0.00 | 60 | 1016.5 |
| 20260507114005 | 16 | 265 | 0.0 | 6.4 | 0.00 | 0.00 | 0.00 | 64 | 1016.4 |
| 20260507113505 | 15 | 270 | 1.6 | 4.8 | 0.00 | 0.00 | 0.00 | 65 | 1016.5 |
| 20260507113006 | 16 | 271 | 1.6 | 4.8 | 0.00 | 0.00 | 0.00 | 64 | 1016.6 |
| 20260507112504 | 16 | 81 | 0.0 | 3.2 | 0.00 | 0.00 | 0.00 | 63 | 1016.5 |
| 20260507112005 | 17 | 345 | 4.8 | 4.8 | 0.00 | 0.00 | 0.00 | 64 | 1016.7 |
| 20260507111507 | 16 | 47 | 1.6 | 9.7 | 0.00 | 0.00 | 0.00 | 65 | 1016.7 |
| 20260507111005 | 16 | 53 | 1.6 | 3.2 | 0.00 | 0.00 | 0.00 | 61 | 1016.7 |
| 20260507110505 | 16 | 0 | 0.0 | 9.7 | 0.00 | 0.00 | 0.00 | 65 | 1016.7 |
| 20260507110005 | 15 | 90 | 8.0 | 11.3 | 0.00 | 0.00 | 0.00 | 68 | 1016.7 |
| 20260507105505 | 15 | 232 | 0.0 | 1.6 | 0.00 | 0.00 | 0.00 | 66 | 1016.6 |
| 20260507105005 | 15 | 267 | 4.8 | 4.8 | 0.00 | 0.00 | 0.00 | 70 | 1016.8 |
| 20260507104506 | 15 | 321 | 1.6 | 3.2 | 0.00 | 0.00 | 0.00 | 69 | 1016.8 |
| 20260507104005 | 15 | 14 | 1.6 | 6.4 | 0.00 | 0.00 | 0.00 | 71 | 1016.9 |
| 20260507103505 | 15 | 320 | 0.0 | 1.6 | 0.00 | 0.00 | 0.00 | 69 | 1016.9 |
| 20260507103005 | 15 | 305 | 1.6 | 4.8 | 0.00 | 0.00 | 0.00 | 67 | 1017.0 |
| 20260507102505 | 16 | 358 | 3.2 | 6.4 | 0.00 | 0.00 | 0.00 | 70 | 1016.7 |
| 20260507102006 | 16 | 74 | 4.8 | 11.3 | 0.00 | 0.00 | 0.00 | 71 | 1016.7 |
| 20260507101507 | 15 | 6 | 4.8 | 4.8 | 0.00 | 0.00 | 0.00 | 72 | 1016.8 |
| 20260507101004 | 15 | 73 | 3.2 | 4.8 | 0.00 | 0.00 | 0.00 | 73 | 1017.1 |
| 20260507100505 | 15 | 113 | 1.6 | 3.2 | 0.00 | 0.00 | 0.00 | 73 | 1016.7 |
| 20260507100005 | 15 | 89 | 0.0 | 1.6 | 0.00 | 0.00 | 0.00 | 73 | 1016.8 |
| 20260507095505 | 15 | 306 | 0.0 | 3.2 | 0.00 | 0.00 | 0.00 | 75 | 1016.7 |
| 20260507095006 | 14 | 340 | 1.6 | 4.8 | 0.00 | 0.00 | 0.00 | 77 | 1016.8 |
| 20260507094506 | 14 | 320 | 0.0 | 1.6 | 0.00 | 0.00 | 0.00 | 76 | 1016.8 |
| 20260507094006 | 15 | 74 | 0.0 | 1.6 | 0.00 | 0.00 | 0.00 | 75 | 1016.7 |
| 20260507093505 | 15 | 41 | 4.8 | 6.4 | 0.00 | 0.00 | 0.00 | 78 | 1016.7 |
| 20260507093004 | 14 | 9 | 1.6 | 3.2 | 0.00 | 0.00 | 0.00 | 78 | 1016.6 |
| 20260507092505 | 14 | 36 | 3.2 | 6.4 | 0.00 | 0.00 | 0.00 | 80 | 1016.7 |
| 20260507092004 | 13 | 298 | 3.2 | 3.2 | 0.00 | 0.00 | 0.00 | 79 | 1016.6 |
| 20260507091503 | 14 | 54 | 1.6 | 4.8 | 0.00 | 0.00 | 0.00 | 81 | 1016.6 |
| 20260507091005 | 13 | 15 | 3.2 | 6.4 | 0.00 | 0.00 | 0.00 | 82 | 1016.5 |
| 20260507090505 | 13 | 74 | 3.2 | 4.8 | 0.00 | 0.00 | 0.00 | 83 | 1016.8 |
| 20260507090005 | 13 | 93 | 1.6 | 3.2 | 0.00 | 0.00 | 0.00 | 83 | 1016.7 |
| 20260507085503 | 13 | 355 | 0.0 | 3.2 | 0.00 | 0.00 | 0.00 | 83 | 1016.5 |
| 20260507085005 | 12 | 304 | 4.8 | 6.4 | 0.00 | 0.00 | 0.00 | 83 | 1016.5 |
| 20260507084505 | 13 | 334 | 1.6 | 4.8 | 0.00 | 0.00 | 0.00 | 83 | 1016.5 |
| 20260507084005 | 12 | 48 | 1.6 | 6.4 | 0.00 | 0.00 | 0.00 | 85 | 1016.5 |
| 20260507083505 | 12 | 62 | 1.6 | 3.2 | 0.00 | 0.00 | 0.00 | 85 | 1016.7 |
| 20260507083005 | 12 | 344 | 0.0 | 3.2 | 0.00 | 0.00 | 0.00 | 85 | 1016.6 |
| 20260507082504 | 12 | 49 | 1.6 | 4.8 | 0.00 | 0.00 | 0.00 | 86 | 1016.6 |
| 20260507082005 | 12 | 23 | 1.6 | 4.8 | 0.00 | 0.00 | 0.00 | 86 | 1016.4 |
| 20260507081505 | 12 | 336 | 0.0 | 1.6 | 0.00 | 0.00 | 0.00 | 86 | 1016.3 |
| 20260507081005 | 12 | 8 | 4.8 | 4.8 | 0.00 | 0.00 | 0.00 | 88 | 1016.6 |
| 20260507080503 | 12 | 76 | 3.2 | 4.8 | 0.00 | 0.00 | 0.00 | 87 | 1016.3 |
| 20260507080005 | 12 | 44 | 3.2 | 6.4 | 0.00 | 0.00 | 0.00 | 87 | 1016.4 |
| 20260507075504 | 12 | 331 | 0.0 | 1.6 | 0.00 | 0.00 | 0.00 | 87 | 1016.4 |
| 20260507075005 | 11 | 37 | 1.6 | 6.4 | 0.00 | 0.00 | 0.00 | 88 | 1016.2 |
| 20260507074505 | 11 | 350 | 4.8 | 6.4 | 0.00 | 0.00 | 0.00 | 89 | 1016.6 |
| 20260507074006 | 11 | 55 | 1.6 | 3.2 | 0.00 | 0.00 | 0.00 | 90 | 1016.4 |
| 20260507073505 | 11 | 36 | 0.0 | 1.6 | 0.00 | 0.00 | 0.00 | 90 | 1016.4 |
| 20260507073005 | 11 | 38 | 0.0 | 3.2 | 0.00 | 0.00 | 0.00 | 91 | 1016.2 |
| 20260507072504 | 11 | 37 | 0.0 | 1.6 | 0.00 | 0.00 | 0.00 | 91 | 1016.3 |
| 20260507072006 | 11 | 24 | 0.0 | 1.6 | 0.00 | 0.00 | 0.00 | 91 | 1016.3 |
| 20260507071504 | 11 | 5 | 0.0 | 1.6 | 0.00 | 0.00 | 0.00 | 92 | 1016.2 |
| 20260507071005 | 10 | 31 | 1.6 | 1.6 | 0.00 | 0.00 | 0.00 | 92 | 1016.1 |
| 20260507070505 | 10 | 7 | 0.0 | 1.6 | 0.00 | 0.00 | 0.00 | 93 | 1016.0 |
| 20260507070009 | 10 | 20 | 1.6 | 3.2 | 0.00 | 0.00 | 0.00 | 93 | 1016.2 |
| 20260507065505 | 10 | 22 | 0.0 | 1.6 | 0.00 | 0.00 | 0.00 | 94 | 1016.1 |
| 20260507065005 | 10 | 321 | 0.0 | 1.6 | 0.00 | 0.00 | 0.00 | 95 | 1016.0 |
| 20260507064505 | 10 | 296 | 0.0 | 1.6 | 0.00 | 0.00 | 0.00 | 95 | 1016.0 |
| 20260507064005 | 9 | 296 | 0.0 | 1.6 | 0.00 | 0.00 | 0.00 | 95 | 1016.0 |
| 20260507063502 | 9 | 296 | 0.0 | 1.6 | 0.00 | 0.00 | 0.00 | 95 | 1016.0 |
| 20260507063004 | 9 | 296 | 1.6 | 1.6 | 0.00 | 0.00 | 0.00 | 96 | 1015.9 |
| 20260507062505 | 9 | 296 | 0.0 | 0.0 | 0.00 | 0.00 | 0.00 | 96 | 1016.0 |
| 20260507062005 | 9 | 296 | 0.0 | 0.0 | 0.00 | 0.00 | 0.00 | 96 | 1015.7 |
| 20260507061504 | 9 | 296 | 0.0 | 1.6 | 0.00 | 0.00 | 0.00 | 96 | 1015.8 |
| 20260507061004 | 9 | 296 | 1.6 | 1.6 | 0.00 | 0.00 | 0.00 | 96 | 1015.9 |
| 20260507060505 | 9 | 296 | 1.6 | 1.6 | 0.00 | 0.00 | 0.00 | 96 | 1015.7 |
| 20260507060006 | 9 | 296 | 0.0 | 0.0 | 0.00 | 0.00 | 0.00 | 96 | 1015.7 |
| 20260507055505 | 9 | 296 | 0.0 | 0.0 | 0.00 | 0.00 | 0.00 | 97 | 1015.8 |
| 20260507055005 | 8 | 296 | 0.0 | 0.0 | 0.00 | 0.00 | 0.00 | 97 | 1015.8 |
| 20260507054505 | 8 | 296 | 0.0 | 1.6 | 0.00 | 0.00 | 0.00 | 97 | 1015.7 |
| 20260507054005 | 8 | 296 | 0.0 | 1.6 | 0.00 | 0.00 | 0.00 | 97 | 1015.8 |
| 20260507053504 | 8 | 296 | 0.0 | 0.0 | 0.00 | 0.00 | 0.00 | 97 | 1015.7 |
| 20260507053005 | 8 | 296 | 0.0 | 0.0 | 0.00 | 0.00 | 0.00 | 97 | 1015.7 |
| 20260507052505 | 8 | 296 | 0.0 | 1.6 | 0.00 | 0.00 | 0.00 | 97 | 1015.5 |
| 20260507052006 | 8 | 296 | 0.0 | 1.6 | 0.00 | 0.00 | 0.00 | 97 | 1015.6 |
| 20260507051503 | 8 | 298 | 0.0 | 4.8 | 0.00 | 0.00 | 0.00 | 97 | 1015.5 |
| 20260507051005 | 8 | 286 | 3.2 | 4.8 | 0.00 | 0.00 | 0.00 | 97 | 1015.3 |
| 20260507050505 | 8 | 309 | 3.2 | 3.2 | 0.00 | 0.00 | 0.00 | 97 | 1015.2 |
| 20260507050006 | 8 | 307 | 1.6 | 4.8 | 0.00 | 0.00 | 0.00 | 97 | 1015.1 |
| 20260507045505 | 8 | 304 | 1.6 | 4.8 | 0.00 | 0.00 | 0.00 | 97 | 1015.3 |
| 20260507045005 | 8 | 305 | 3.2 | 3.2 | 0.00 | 0.00 | 0.00 | 97 | 1015.1 |
| 20260507044503 | 8 | 299 | 1.6 | 3.2 | 0.00 | 0.00 | 0.00 | 96 | 1015.1 |
| 20260507044005 | 8 | 299 | 0.0 | 1.6 | 0.00 | 0.00 | 0.00 | 96 | 1015.2 |
| 20260507043505 | 8 | 299 | 0.0 | 3.2 | 0.00 | 0.00 | 0.00 | 96 | 1015.0 |
| 20260507043006 | 8 | 298 | 1.6 | 1.6 | 0.00 | 0.00 | 0.00 | 96 | 1015.2 |
| 20260507042505 | 8 | 296 | 3.2 | 3.2 | 0.00 | 0.00 | 0.00 | 96 | 1015.2 |
| 20260507042006 | 8 | 300 | 1.6 | 1.6 | 0.00 | 0.00 | 0.00 | 96 | 1015.0 |
| 20260507041505 | 8 | 297 | 0.0 | 1.6 | 0.00 | 0.00 | 0.00 | 96 | 1014.9 |
| 20260507041004 | 8 | 293 | 0.0 | 0.0 | 0.00 | 0.00 | 0.00 | 96 | 1015.0 |
| 20260507040505 | 8 | 293 | 1.6 | 1.6 | 0.00 | 0.00 | 0.00 | 96 | 1014.9 |
| 20260507040005 | 8 | 293 | 0.0 | 1.6 | 0.00 | 0.00 | 0.00 | 96 | 1014.9 |
| 20260507035505 | 8 | 294 | 0.0 | 0.0 | 0.00 | 0.00 | 0.00 | 96 | 1015.0 |
| 20260507035006 | 8 | 302 | 0.0 | 0.0 | 0.00 | 0.00 | 0.00 | 95 | 1014.8 |
| 20260507034505 | 8 | 302 | 1.6 | 1.6 | 0.00 | 0.00 | 0.00 | 95 | 1014.8 |
| 20260507034005 | 8 | 302 | 0.0 | 1.6 | 0.00 | 0.00 | 0.00 | 95 | 1014.8 |
| 20260507033506 | 9 | 302 | 0.0 | 1.6 | 0.00 | 0.00 | 0.00 | 95 | 1014.9 |
| 20260507033004 | 9 | 302 | 0.0 | 0.0 | 0.00 | 0.00 | 0.00 | 95 | 1015.0 |
| 20260507032506 | 9 | 300 | 0.0 | 0.0 | 0.00 | 0.00 | 0.00 | 95 | 1014.9 |
| 20260507032004 | 9 | 298 | 0.0 | 0.0 | 0.00 | 0.00 | 0.00 | 95 | 1015.0 |
| 20260507031505 | 9 | 303 | 0.0 | 1.6 | 0.00 | 0.00 | 0.00 | 94 | 1015.0 |
| 20260507031005 | 9 | 303 | 0.0 | 1.6 | 0.00 | 0.00 | 0.00 | 94 | 1014.9 |
| 20260507030504 | 9 | 303 | 0.0 | 0.0 | 0.00 | 0.00 | 0.00 | 94 | 1014.9 |
| 20260507030005 | 9 | 304 | 0.0 | 0.0 | 0.00 | 0.00 | 0.00 | 94 | 1014.7 |
| 20260507025505 | 10 | 306 | 0.0 | 0.0 | 0.00 | 0.00 | 0.00 | 94 | 1015.0 |
| 20260507025006 | 10 | 306 | 1.6 | 3.2 | 0.00 | 0.00 | 0.00 | 94 | 1014.8 |
| 20260507024506 | 10 | 302 | 1.6 | 3.2 | 0.00 | 0.00 | 0.00 | 94 | 1014.9 |
| 20260507024005 | 10 | 298 | 0.0 | 3.2 | 0.00 | 0.00 | 0.00 | 94 | 1014.9 |
| 20260507023503 | 10 | 297 | 1.6 | 3.2 | 0.00 | 0.00 | 0.00 | 94 | 1014.8 |
| 20260507023005 | 10 | 299 | 1.6 | 3.2 | 0.00 | 0.00 | 0.00 | 94 | 1014.8 |
| 20260507022505 | 10 | 299 | 0.0 | 1.6 | 0.00 | 0.00 | 0.00 | 94 | 1015.0 |
| 20260507022005 | 10 | 292 | 1.6 | 3.2 | 0.00 | 0.00 | 0.00 | 94 | 1014.8 |
| 20260507021504 | 10 | 296 | 1.6 | 1.6 | 0.00 | 0.00 | 0.00 | 94 | 1014.8 |
| 20260507021005 | 10 | 291 | 0.0 | 1.6 | 0.00 | 0.00 | 0.00 | 94 | 1014.6 |
| 20260507020504 | 10 | 294 | 1.6 | 3.2 | 0.00 | 0.00 | 0.00 | 94 | 1014.6 |
| 20260507020005 | 10 | 284 | 1.6 | 3.2 | 0.00 | 0.00 | 0.00 | 94 | 1014.6 |
| 20260507015505 | 10 | 282 | 1.6 | 3.2 | 0.00 | 0.00 | 0.00 | 94 | 1014.6 |
| 20260507015006 | 10 | 286 | 0.0 | 1.6 | 0.00 | 0.00 | 0.00 | 94 | 1014.7 |
| 20260507014503 | 10 | 239 | 0.0 | 3.2 | 0.00 | 0.00 | 0.00 | 94 | 1014.5 |
| 20260507014005 | 10 | 264 | 1.6 | 3.2 | 0.00 | 0.00 | 0.00 | 94 | 1014.6 |
| 20260507013505 | 10 | 242 | 1.6 | 3.2 | 0.00 | 0.00 | 0.00 | 94 | 1014.4 |
| 20260507013005 | 10 | 234 | 1.6 | 3.2 | 0.00 | 0.00 | 0.00 | 94 | 1014.5 |
| 20260507012504 | 10 | 236 | 0.0 | 1.6 | 0.00 | 0.00 | 0.00 | 94 | 1014.7 |
| 20260507012005 | 10 | 213 | 0.0 | 1.6 | 0.00 | 0.00 | 0.00 | 94 | 1014.6 |
| 20260507011503 | 10 | 213 | 1.6 | 1.6 | 0.00 | 0.00 | 0.00 | 94 | 1014.4 |
| 20260507011004 | 10 | 217 | 0.0 | 0.0 | 0.00 | 0.00 | 0.00 | 94 | 1014.7 |
| 20260507010505 | 10 | 220 | 0.0 | 1.6 | 0.00 | 0.00 | 0.00 | 94 | 1014.5 |
| 20260507010005 | 10 | 227 | 1.6 | 1.6 | 0.00 | 0.00 | 0.00 | 93 | 1014.5 |
| 20260507005505 | 10 | 230 | 0.0 | 0.0 | 0.00 | 0.00 | 0.00 | 93 | 1014.5 |
| 20260507005005 | 10 | 230 | 0.0 | 0.0 | 0.00 | 0.00 | 0.00 | 93 | 1014.5 |
| 20260507004505 | 10 | 288 | 0.0 | 1.6 | 0.00 | 0.00 | 0.00 | 93 | 1014.4 |
| 20260507004004 | 10 | 288 | 0.0 | 1.6 | 0.00 | 0.00 | 0.00 | 93 | 1014.6 |
| 20260507003505 | 10 | 288 | 0.0 | 1.6 | 0.00 | 0.00 | 0.00 | 93 | 1014.4 |
| 20260507003005 | 10 | 288 | 0.0 | 1.6 | 0.00 | 0.00 | 0.00 | 93 | 1014.3 |
| 20260507002505 | 10 | 288 | 0.0 | 1.6 | 0.00 | 0.00 | 0.00 | 93 | 1014.7 |
| 20260507002005 | 10 | 289 | 0.0 | 0.0 | 0.00 | 0.00 | 0.00 | 93 | 1014.6 |
| 20260507001504 | 10 | 289 | 0.0 | 0.0 | 0.00 | 0.00 | 0.00 | 93 | 1014.5 |
| 20260507001004 | 10 | 289 | 0.0 | 0.0 | 0.00 | 0.00 | 0.00 | 93 | 1014.4 |
| 20260507000505 | 10 | 289 | 0.0 | 0.0 | 0.00 | 0.00 | 0.00 | 93 | 1014.6 |
| 20260507000005 | 10 | 289 | 0.0 | 0.0 | 0.00 | 0.00 | 0.00 | 93 | 1014.3 |
| 20260506235504 | 10 | 289 | 0.0 | 0.0 | 0.00 | 0.00 | 0.00 | 93 | 1014.3 |
| 20260506235005 | 10 | 288 | 0.0 | 1.6 | 0.00 | 0.00 | 0.00 | 93 | 1014.5 |
| 20260506234505 | 10 | 288 | 0.0 | 1.6 | 0.00 | 0.00 | 0.00 | 93 | 1014.3 |
| 20260506234005 | 10 | 294 | 0.0 | 3.2 | 0.00 | 0.00 | 0.00 | 93 | 1014.4 |
| 20260506233505 | 10 | 269 | 1.6 | 1.6 | 0.00 | 0.00 | 0.00 | 93 | 1014.4 |
| 20260506233006 | 10 | 284 | 0.0 | 1.6 | 0.00 | 0.00 | 0.00 | 93 | 1014.3 |
| 20260506232505 | 10 | 312 | 0.0 | 0.0 | 0.00 | 0.00 | 0.00 | 93 | 1014.3 |
| 20260506232006 | 10 | 312 | 0.0 | 1.6 | 0.00 | 0.00 | 0.00 | 93 | 1014.4 |
| 20260506231504 | 10 | 312 | 0.0 | 0.0 | 0.00 | 0.00 | 0.00 | 93 | 1014.3 |
| 20260506231005 | 10 | 312 | 0.0 | 0.0 | 0.00 | 0.00 | 0.00 | 93 | 1014.2 |
| 20260506230505 | 10 | 312 | 0.0 | 0.0 | 0.00 | 0.00 | 0.00 | 93 | 1014.2 |
| 20260506230005 | 10 | 312 | 0.0 | 0.0 | 0.00 | 0.00 | 0.00 | 93 | 1014.2 |
| 20260506225505 | 10 | 312 | 0.0 | 1.6 | 0.53 | 0.00 | 0.00 | 93 | 1014.3 |
| 20260506225004 | 10 | 312 | 0.0 | 1.6 | 0.53 | 0.00 | 0.00 | 94 | 1014.2 |
| 20260506224504 | 10 | 312 | 0.0 | 3.2 | 0.53 | 0.00 | 0.00 | 94 | 1014.3 |
| 20260506224004 | 10 | 312 | 0.0 | 1.6 | 0.53 | 0.00 | 0.00 | 94 | 1014.2 |
| 20260506223505 | 10 | 312 | 0.0 | 1.6 | 0.53 | 0.00 | 0.00 | 94 | 1014.2 |
| 20260506223005 | 10 | 312 | 0.0 | 1.6 | 0.53 | 0.00 | 0.00 | 94 | 1014.3 |
| 20260506222505 | 10 | 317 | 0.0 | 1.6 | 0.53 | 0.00 | 0.00 | 94 | 1014.4 |
| 20260506222005 | 10 | 313 | 1.6 | 1.6 | 0.53 | 0.00 | 0.00 | 94 | 1014.2 |
| 20260506221505 | 10 | 313 | 0.0 | 1.6 | 0.53 | 0.00 | 0.00 | 93 | 1014.0 |
| 20260506221004 | 10 | 311 | 1.6 | 1.6 | 0.53 | 0.00 | 0.00 | 93 | 1014.2 |
| 20260506220505 | 10 | 310 | 0.0 | 1.6 | 0.53 | 0.00 | 0.00 | 93 | 1014.2 |
| 20260506220005 | 10 | 307 | 0.0 | 1.6 | 0.00 | 0.00 | 0.53 | 92 | 1014.1 |
| 20260506215505 | 10 | 309 | 0.0 | 1.6 | 0.00 | 0.00 | 0.53 | 92 | 1014.2 |
| 20260506215004 | 10 | 297 | 0.0 | 1.6 | 0.00 | 0.00 | 0.53 | 92 | 1014.1 |
| 20260506214505 | 10 | 289 | 1.6 | 3.2 | 0.00 | 0.00 | 0.53 | 92 | 1013.9 |
| 20260506214005 | 10 | 302 | 3.2 | 3.2 | 0.00 | 0.00 | 0.53 | 92 | 1014.0 |
| 20260506213505 | 10 | 294 | 1.6 | 3.2 | 0.00 | 0.00 | 0.53 | 92 | 1014.0 |
| 20260506213004 | 10 | 297 | 0.0 | 3.2 | 0.00 | 0.00 | 0.53 | 92 | 1014.1 |
| 20260506212505 | 10 | 291 | 3.2 | 3.2 | 0.00 | 0.00 | 0.53 | 92 | 1014.0 |
| 20260506212005 | 10 | 296 | 1.6 | 1.6 | 0.00 | 0.00 | 0.53 | 92 | 1014.0 |
| 20260506211505 | 10 | 305 | 3.2 | 3.2 | 0.00 | 0.00 | 0.53 | 92 | 1014.0 |
| 20260506211004 | 10 | 309 | 1.6 | 1.6 | 0.00 | 0.00 | 0.53 | 92 | 1014.1 |
| 20260506210505 | 10 | 319 | 3.2 | 3.2 | 0.00 | 0.00 | 0.53 | 92 | 1014.0 |
| 20260506210005 | 10 | 321 | 1.6 | 3.2 | 0.00 | 0.00 | 0.53 | 91 | 1013.9 |
| 20260506205505 | 10 | 321 | 3.2 | 6.4 | 0.00 | 0.00 | 0.53 | 91 | 1014.0 |
| 20260506205005 | 10 | 313 | 1.6 | 3.2 | 0.00 | 0.00 | 0.53 | 91 | 1013.8 |
| 20260506204506 | 10 | 316 | 0.0 | 3.2 | 0.00 | 0.00 | 0.53 | 91 | 1013.8 |
| 20260506204006 | 10 | 299 | 3.2 | 4.8 | 0.00 | 0.00 | 0.53 | 91 | 1013.7 |
| 20260506203506 | 10 | 314 | 1.6 | 6.4 | 0.00 | 0.00 | 0.53 | 91 | 1013.8 |
| 20260506203004 | 10 | 296 | 4.8 | 9.7 | 0.00 | 0.00 | 0.53 | 91 | 1013.8 |
| 20260506202505 | 10 | 298 | 3.2 | 6.4 | 0.00 | 0.00 | 0.53 | 91 | 1013.7 |
| 20260506202005 | 10 | 338 | 6.4 | 9.7 | 0.00 | 0.00 | 0.53 | 90 | 1013.6 |
| 20260506201505 | 10 | 318 | 6.4 | 9.7 | 0.00 | 0.00 | 0.53 | 90 | 1013.7 |
| 20260506201004 | 11 | 308 | 4.8 | 4.8 | 0.00 | 0.00 | 0.53 | 90 | 1013.6 |
| 20260506200504 | 11 | 334 | 3.2 | 4.8 | 0.00 | 0.00 | 0.53 | 90 | 1013.5 |
| 20260506200005 | 11 | 330 | 1.6 | 1.6 | 0.00 | 0.00 | 0.53 | 90 | 1013.6 |
| 20260506195505 | 11 | 336 | 0.0 | 4.8 | 0.00 | 0.00 | 0.53 | 90 | 1013.4 |
| 20260506195005 | 11 | 345 | 3.2 | 4.8 | 0.00 | 0.00 | 0.53 | 90 | 1013.3 |
| 20260506194504 | 11 | 332 | 0.0 | 1.6 | 0.00 | 0.00 | 0.53 | 90 | 1013.3 |
| 20260506194005 | 11 | 317 | 0.0 | 1.6 | 0.00 | 0.00 | 0.53 | 90 | 1013.3 |
| 20260506193505 | 11 | 319 | 1.6 | 1.6 | 0.00 | 0.00 | 0.53 | 90 | 1013.2 |
| 20260506193004 | 11 | 325 | 0.0 | 1.6 | 0.00 | 0.00 | 0.53 | 89 | 1013.1 |
| 20260506192505 | 11 | 274 | 1.6 | 3.2 | 0.00 | 0.00 | 0.53 | 89 | 1013.0 |
| 20260506192005 | 11 | 331 | 1.6 | 1.6 | 0.00 | 0.00 | 0.53 | 89 | 1012.9 |
| 20260506191005 | 11 | 6 | 0.0 | 4.8 | 0.00 | 0.00 | 0.53 | 89 | 1012.9 |
| 20260506190504 | 11 | 348 | 3.2 | 4.8 | 0.00 | 0.00 | 0.53 | 88 | 1012.8 |
| 20260506190006 | 11 | 8 | 4.8 | 6.4 | 0.00 | 0.00 | 0.53 | 88 | 1012.7 |
| 20260506185505 | 11 | 16 | 3.2 | 4.8 | 0.00 | 0.00 | 0.53 | 88 | 1012.7 |
| 20260506185005 | 11 | 10 | 6.4 | 11.3 | 0.00 | 0.00 | 0.53 | 87 | 1012.6 |
| 20260506184505 | 11 | 318 | 8.0 | 14.5 | 0.00 | 0.00 | 0.53 | 87 | 1012.5 |
| 20260506184003 | 11 | 321 | 3.2 | 4.8 | 0.00 | 0.00 | 0.53 | 86 | 1012.4 |
| 20260506183504 | 12 | 51 | 3.2 | 6.4 | 0.00 | 0.00 | 0.53 | 85 | 1012.3 |
| 20260506183006 | 12 | 356 | 6.4 | 9.7 | 0.00 | 0.00 | 0.53 | 85 | 1012.4 |
| 20260506182505 | 12 | 357 | 4.8 | 11.3 | 0.00 | 0.00 | 0.53 | 85 | 1012.3 |
| 20260506182005 | 12 | 11 | 6.4 | 6.4 | 0.00 | 0.00 | 0.53 | 84 | 1012.3 |
| 20260506181504 | 12 | 24 | 6.4 | 12.9 | 0.00 | 0.00 | 0.53 | 84 | 1012.2 |
| 20260506181004 | 12 | 321 | 11.3 | 14.5 | 0.00 | 0.00 | 0.53 | 84 | 1012.1 |
| 20260506180505 | 12 | 344 | 4.8 | 11.3 | 0.00 | 0.00 | 0.53 | 83 | 1012.1 |
| 20260506180006 | 12 | 353 | 1.6 | 3.2 | 0.00 | 0.00 | 0.53 | 82 | 1012.1 |
| 20260506175505 | 12 | 330 | 1.6 | 3.2 | 0.00 | 0.00 | 0.53 | 81 | 1011.9 |
| 20260506175004 | 12 | 323 | 0.0 | 1.6 | 0.00 | 0.00 | 0.53 | 81 | 1011.8 |
| 20260506174505 | 12 | 344 | 1.6 | 3.2 | 0.00 | 0.00 | 0.53 | 80 | 1011.8 |
| 20260506174005 | 12 | 322 | 3.2 | 6.4 | 0.00 | 0.00 | 0.53 | 80 | 1011.7 |
| 20260506173505 | 12 | 343 | 0.0 | 4.8 | 0.00 | 0.00 | 0.53 | 80 | 1011.7 |
| 20260506173003 | 12 | 346 | 1.6 | 4.8 | 0.00 | 0.00 | 0.53 | 80 | 1011.6 |
| 20260506172504 | 12 | 284 | 3.2 | 6.4 | 0.00 | 0.00 | 0.53 | 79 | 1011.4 |
| 20260506172005 | 12 | 354 | 3.2 | 4.8 | 0.00 | 0.00 | 0.53 | 79 | 1011.6 |
| 20260506171504 | 13 | 319 | 3.2 | 6.4 | 0.00 | 0.00 | 0.53 | 77 | 1011.4 |
| 20260506171005 | 13 | 347 | 3.2 | 9.7 | 0.00 | 0.00 | 0.53 | 77 | 1011.4 |
| 20260506170504 | 13 | 12 | 3.2 | 9.7 | 0.00 | 0.00 | 0.53 | 78 | 1011.5 |
| 20260506170005 | 13 | 3 | 4.8 | 6.4 | 0.00 | 0.00 | 0.53 | 77 | 1011.4 |
| 20260506165504 | 13 | 354 | 11.3 | 14.5 | 0.00 | 0.00 | 0.53 | 76 | 1011.5 |
| 20260506165005 | 13 | 326 | 6.4 | 12.9 | 0.00 | 0.00 | 0.53 | 75 | 1011.4 |
| 20260506164505 | 14 | 349 | 8.0 | 16.1 | 0.00 | 0.00 | 0.53 | 73 | 1011.4 |
| 20260506164005 | 14 | 2 | 8.0 | 14.5 | 0.00 | 0.00 | 0.53 | 74 | 1011.5 |
| 20260506163505 | 14 | 338 | 9.7 | 17.7 | 0.00 | 0.00 | 0.53 | 73 | 1011.3 |
| 20260506163005 | 14 | 323 | 4.8 | 16.1 | 0.00 | 0.00 | 0.53 | 70 | 1011.4 |
| 20260506162505 | 14 | 329 | 8.0 | 12.9 | 0.00 | 0.00 | 0.53 | 70 | 1011.3 |
| 20260506162004 | 14 | 337 | 9.7 | 16.1 | 0.00 | 0.00 | 0.53 | 71 | 1011.4 |
| 20260506161505 | 14 | 356 | 9.7 | 11.3 | 0.00 | 0.00 | 0.53 | 73 | 1011.0 |
| 20260506161005 | 13 | 349 | 8.0 | 14.5 | 0.00 | 0.00 | 0.53 | 73 | 1011.4 |
| 20260506160504 | 13 | 54 | 3.2 | 12.9 | 0.00 | 0.00 | 0.53 | 72 | 1011.2 |
| 20260506160005 | 13 | 338 | 3.2 | 12.9 | 0.00 | 0.00 | 0.53 | 73 | 1011.3 |
| 20260506155504 | 13 | 301 | 6.4 | 12.9 | 0.00 | 0.00 | 0.53 | 71 | 1011.4 |
| 20260506155004 | 13 | 13 | 9.7 | 16.1 | 0.00 | 0.00 | 0.53 | 74 | 1011.3 |
| 20260506154505 | 13 | 347 | 11.3 | 14.5 | 0.00 | 0.00 | 0.53 | 73 | 1011.2 |
| 20260506154005 | 14 | 350 | 6.4 | 9.7 | 0.00 | 0.00 | 0.53 | 74 | 1011.0 |
| 20260506153505 | 14 | 2 | 9.7 | 14.5 | 0.00 | 0.00 | 0.53 | 75 | 1011.2 |
| 20260506153005 | 14 | 354 | 1.6 | 11.3 | 0.00 | 0.00 | 0.53 | 74 | 1011.1 |
| 20260506152504 | 14 | 328 | 6.4 | 9.7 | 0.00 | 0.00 | 0.53 | 74 | 1011.2 |
| 20260506152005 | 14 | 355 | 8.0 | 12.9 | 0.00 | 0.00 | 0.53 | 74 | 1011.2 |
| 20260506151503 | 14 | 352 | 11.3 | 16.1 | 0.00 | 0.00 | 0.53 | 73 | 1011.3 |
| 20260506151004 | 14 | 351 | 12.9 | 17.7 | 0.00 | 0.00 | 0.53 | 73 | 1011.3 |
| 20260506150505 | 14 | 306 | 8.0 | 14.5 | 0.00 | 0.00 | 0.53 | 74 | 1011.0 |
| 20260506150004 | 13 | 294 | 11.3 | 16.1 | 0.00 | 0.00 | 0.53 | 74 | 1011.2 |
| 20260506145505 | 14 | 4 | 9.7 | 14.5 | 0.00 | 0.00 | 0.53 | 76 | 1011.2 |
| 20260506144504 | 14 | 319 | 4.8 | 9.7 | 0.00 | 0.00 | 0.53 | 73 | 1011.1 |
| 20260506144004 | 14 | 350 | 4.8 | 16.1 | 0.00 | 0.00 | 0.53 | 73 | 1011.3 |
| 20260506143505 | 13 | 337 | 6.4 | 14.5 | 0.00 | 0.00 | 0.53 | 73 | 1011.3 |
| 20260506143005 | 13 | 321 | 3.2 | 16.1 | 0.00 | 0.00 | 0.53 | 73 | 1011.2 |
| 20260506142504 | 13 | 4 | 4.8 | 11.3 | 0.00 | 0.00 | 0.53 | 75 | 1011.3 |
| 20260506142005 | 13 | 308 | 6.4 | 9.7 | 0.00 | 0.00 | 0.53 | 77 | 1011.2 |
| 20260506141505 | 13 | 310 | 3.2 | 11.3 | 0.00 | 0.00 | 0.53 | 75 | 1011.1 |
| 20260506141006 | 13 | 334 | 8.0 | 12.9 | 0.00 | 0.00 | 0.53 | 73 | 1011.2 |
| 20260506140505 | 13 | 8 | 8.0 | 11.3 | 0.00 | 0.00 | 0.53 | 73 | 1011.1 |
| 20260506140006 | 13 | 275 | 8.0 | 14.5 | 0.00 | 0.00 | 0.53 | 74 | 1011.2 |
| 20260506135505 | 13 | 303 | 6.4 | 6.4 | 0.00 | 0.00 | 0.53 | 74 | 1011.2 |
| 20260506135004 | 13 | 356 | 3.2 | 4.8 | 0.00 | 0.00 | 0.53 | 74 | 1011.3 |
| 20260506134505 | 13 | 317 | 3.2 | 9.7 | 0.00 | 0.00 | 0.53 | 73 | 1011.3 |
| 20260506134005 | 14 | 353 | 4.8 | 9.7 | 0.00 | 0.00 | 0.53 | 72 | 1011.2 |
| 20260506133505 | 15 | 277 | 6.4 | 12.9 | 0.00 | 0.00 | 0.53 | 74 | 1011.3 |
| 20260506133006 | 14 | 345 | 3.2 | 6.4 | 0.00 | 0.00 | 0.53 | 74 | 1011.0 |
| 20260506132505 | 13 | 358 | 4.8 | 9.7 | 0.00 | 0.00 | 0.53 | 75 | 1011.3 |
| 20260506132005 | 13 | 317 | 3.2 | 11.3 | 0.00 | 0.00 | 0.53 | 75 | 1011.1 |
| 20260506131504 | 13 | 328 | 1.6 | 9.7 | 0.00 | 0.00 | 0.53 | 75 | 1011.4 |
| 20260506131004 | 13 | 302 | 3.2 | 11.3 | 0.00 | 0.00 | 0.53 | 75 | 1011.2 |
| 20260506130505 | 13 | 290 | 6.4 | 6.4 | 0.00 | 0.00 | 0.00 | ||
| 20260506130005 | 13 | 343 | 3.2 | 4.8 | 0.00 | 0.00 | 0.53 | 77 | 1011.4 |
| 20260506125505 | 13 | 11 | 6.4 | 16.1 | 0.00 | 0.00 | 0.53 | 76 | 1011.1 |
| 20260506125006 | 14 | 347 | 6.4 | 9.7 | 0.00 | 0.00 | 0.53 | 75 | 1011.1 |
| 20260506124506 | 14 | 0 | 6.4 | 6.4 | 0.00 | 0.00 | 0.53 | 75 | 1011.0 |
| 20260506124005 | 13 | 12 | 4.8 | 11.3 | 0.00 | 0.00 | 0.53 | 76 | 1011.0 |
| 20260506123505 | 13 | 307 | 3.2 | 12.9 | 0.00 | 0.00 | 0.53 | 78 | 1010.9 |
| 20260506123006 | 13 | 333 | 8.0 | 17.7 | 0.00 | 0.00 | 0.53 | 77 | 1011.1 |
| 20260506122505 | 13 | 301 | 8.0 | 14.5 | 0.00 | 0.00 | 0.53 | 76 | 1011.0 |
| 20260506122005 | 13 | 344 | 4.8 | 14.5 | 0.00 | 0.00 | 0.53 | 76 | 1011.0 |
| 20260506121505 | 13 | 327 | 3.2 | 14.5 | 0.00 | 0.00 | 0.53 | 79 | 1011.0 |
| 20260506121004 | 13 | 350 | 9.7 | 24.1 | 0.00 | 0.00 | 0.53 | 79 | 1010.7 |